createdAt,value
2022-12-17T00:06:35.812Z,8.68
2022-12-17T00:09:21.876Z,8.88
2022-12-17T00:12:07.583Z,8.73
2022-12-17T00:14:53.338Z,7.60
2022-12-17T00:17:39.329Z,8.05
2022-12-17T00:20:25.253Z,8.05
2022-12-17T00:23:21.669Z,8.30
2022-12-17T00:26:14.976Z,8.30
2022-12-17T00:29:00.612Z,8.35
2022-12-17T00:31:47.764Z,7.85
2022-12-17T00:34:33.570Z,8.38
2022-12-17T00:37:19.053Z,8.23
2022-12-17T00:40:04.828Z,8.98
2022-12-17T00:42:50.558Z,9.35
2022-12-17T00:45:36.044Z,8.82
2022-12-17T00:48:21.839Z,9.02
2022-12-17T00:51:07.537Z,7.90
2022-12-17T00:53:52.950Z,9.45
2022-12-17T00:56:38.621Z,9.57
2022-12-17T00:59:23.969Z,8.40
2022-12-17T01:02:09.568Z,8.38
2022-12-17T01:04:55.544Z,9.10
2022-12-17T01:07:42.663Z,8.40
2022-12-17T01:10:28.158Z,8.90
2022-12-17T01:13:13.887Z,9.23
2022-12-17T01:15:59.424Z,8.82
2022-12-17T01:18:45.158Z,8.10
2022-12-17T01:21:30.685Z,8.68
2022-12-17T01:24:16.498Z,9.00
2022-12-17T01:27:27.980Z,8.00
2022-12-17T01:30:13.442Z,8.43
2022-12-17T01:32:59.437Z,8.60
2022-12-17T01:35:44.854Z,8.18
2022-12-17T01:38:35.726Z,8.43
2022-12-17T01:41:22.466Z,7.93
2022-12-17T01:44:08.660Z,8.63
2022-12-17T01:47:03.002Z,8.57
2022-12-17T01:49:48.715Z,9.00
2022-12-17T01:52:35.921Z,9.10
2022-12-17T01:55:25.401Z,8.43
2022-12-17T01:58:11.251Z,8.32
2022-12-17T02:00:56.868Z,8.40
2022-12-17T02:03:42.476Z,7.93
2022-12-17T02:06:43.723Z,8.55
2022-12-17T02:10:02.265Z,8.85
2022-12-17T02:12:58.404Z,8.57
2022-12-17T02:15:56.160Z,9.05
2022-12-17T02:18:49.851Z,8.65
2022-12-17T02:21:38.001Z,8.95
2022-12-17T02:24:32.973Z,8.90
2022-12-17T02:27:23.590Z,8.93
2022-12-17T02:30:23.643Z,8.60
2022-12-17T02:36:57.132Z,9.23
2022-12-17T02:39:42.527Z,10.27
2022-12-17T02:42:27.980Z,10.25
2022-12-17T02:45:15.009Z,10.15
2022-12-17T02:48:01.314Z,10.32
2022-12-17T02:50:46.986Z,11.38
2022-12-17T02:53:32.850Z,11.60
2022-12-17T02:56:18.934Z,11.73
2022-12-17T02:59:04.358Z,11.05
2022-12-17T03:01:50.178Z,10.77
2022-12-17T03:04:35.660Z,11.37
2022-12-17T03:07:21.439Z,10.52
2022-12-17T03:10:12.022Z,9.93
2022-12-17T03:12:57.599Z,10.55
2022-12-17T03:15:43.138Z,9.65
2022-12-17T03:18:29.002Z,10.13
2022-12-17T03:21:14.951Z,9.85
2022-12-17T03:24:00.531Z,9.77
2022-12-17T03:27:00.524Z,10.45
2022-12-17T03:29:46.635Z,9.63
2022-12-17T03:32:36.847Z,10.10
2022-12-17T03:35:22.860Z,9.68
2022-12-17T03:38:16.622Z,9.10
2022-12-17T03:41:02.808Z,9.43
2022-12-17T03:43:48.402Z,9.63
2022-12-17T03:46:34.273Z,9.32
2022-12-17T03:49:19.879Z,9.45
2022-12-17T03:52:05.400Z,9.32
2022-12-17T03:54:51.355Z,9.88
2022-12-17T03:57:37.025Z,8.82
2022-12-17T04:00:24.576Z,8.93
2022-12-17T04:03:10.437Z,9.23
2022-12-17T04:05:56.145Z,8.57
2022-12-17T04:08:41.821Z,8.85
2022-12-17T04:11:27.931Z,9.10
2022-12-17T04:14:13.587Z,8.10
2022-12-17T04:16:59.794Z,9.40
2022-12-17T04:19:45.689Z,8.45
2022-12-17T04:22:31.506Z,8.98
2022-12-17T04:25:17.180Z,8.98
2022-12-17T04:28:02.960Z,8.73
2022-12-17T04:30:48.890Z,8.87
2022-12-17T04:33:35.118Z,8.52
2022-12-17T04:36:20.719Z,8.45
2022-12-17T04:39:06.074Z,9.13
2022-12-17T04:41:51.480Z,8.45
2022-12-17T04:44:37.282Z,8.77
2022-12-17T04:47:23.102Z,8.53
2022-12-17T04:50:08.854Z,7.67
2022-12-17T04:52:54.731Z,8.37
2022-12-17T04:55:40.751Z,9.18
2022-12-17T04:58:26.446Z,8.68
2022-12-17T05:01:13.585Z,8.18
2022-12-17T05:03:59.168Z,7.97
2022-12-17T05:06:45.218Z,7.38
2022-12-17T05:09:31.003Z,8.90
2022-12-17T05:12:16.697Z,8.38
2022-12-17T05:15:02.652Z,8.38
2022-12-17T05:17:48.368Z,9.48
2022-12-17T05:20:34.169Z,8.43
2022-12-17T05:23:25.156Z,8.90
2022-12-17T05:26:46.289Z,8.23
2022-12-17T05:29:32.202Z,9.30
2022-12-17T05:32:18.104Z,8.85
2022-12-17T05:35:03.665Z,9.07
2022-12-17T05:37:50.287Z,8.57
2022-12-17T05:40:35.731Z,9.82
2022-12-17T05:43:24.825Z,9.60
2022-12-17T05:46:10.944Z,10.13
2022-12-17T05:48:56.785Z,10.02
2022-12-17T05:51:42.817Z,10.00
2022-12-17T05:54:28.490Z,9.68
2022-12-17T05:57:14.188Z,10.07
2022-12-17T06:00:00.341Z,9.93
2022-12-17T06:02:47.031Z,9.30
2022-12-17T06:05:33.165Z,9.60
2022-12-17T06:08:27.086Z,9.18
2022-12-17T06:11:13.732Z,9.35
2022-12-17T06:13:59.729Z,9.65
2022-12-17T06:16:45.199Z,9.15
2022-12-17T06:19:31.224Z,9.75
2022-12-17T06:22:16.685Z,10.03
2022-12-17T06:25:02.493Z,10.23
2022-12-17T06:27:48.069Z,8.88
2022-12-17T06:30:33.726Z,9.57
2022-12-17T06:33:26.825Z,10.27
2022-12-17T06:36:21.262Z,9.65
2022-12-17T06:39:07.609Z,9.90
2022-12-17T06:42:24.240Z,9.52
2022-12-17T06:45:10.030Z,9.20
2022-12-17T06:47:55.878Z,9.70
2022-12-17T06:50:41.333Z,9.63
2022-12-17T06:53:27.074Z,8.90
2022-12-17T06:59:19.007Z,10.32
2022-12-17T07:02:04.771Z,9.20
2022-12-17T07:04:50.588Z,9.00
2022-12-17T07:07:36.465Z,9.02
2022-12-17T07:10:22.662Z,8.48
2022-12-17T07:13:16.338Z,9.05
2022-12-17T07:16:02.442Z,8.80
2022-12-17T07:18:48.109Z,10.20
2022-12-17T07:21:33.732Z,9.85
2022-12-17T07:24:19.276Z,10.32
2022-12-17T07:27:04.724Z,10.07
2022-12-17T07:29:50.351Z,11.25
2022-12-17T07:32:35.951Z,10.57
2022-12-17T07:35:21.312Z,10.07
2022-12-17T07:38:06.813Z,11.15
2022-12-17T07:40:52.508Z,10.70
2022-12-17T07:43:38.588Z,12.45
2022-12-17T07:46:24.377Z,13.10
2022-12-17T07:49:10.268Z,11.75
2022-12-17T07:51:55.943Z,12.45
2022-12-17T07:54:41.330Z,11.48
2022-12-17T07:57:26.835Z,11.90
2022-12-17T08:00:12.381Z,12.55
2022-12-17T08:02:58.116Z,12.95
2022-12-17T08:05:43.737Z,12.70
2022-12-17T08:08:31.282Z,13.45
2022-12-17T08:11:17.170Z,14.55
2022-12-17T08:14:03.716Z,13.77
2022-12-17T08:16:49.604Z,13.32
2022-12-17T08:19:34.981Z,14.17
2022-12-17T08:22:20.405Z,13.23
2022-12-17T08:25:06.123Z,13.35
2022-12-17T08:27:51.901Z,13.65
2022-12-17T08:30:37.833Z,13.73
2022-12-17T08:33:24.192Z,14.17
2022-12-17T08:36:14.693Z,14.43
2022-12-17T08:39:00.779Z,13.52
2022-12-17T08:41:51.064Z,14.73
2022-12-17T08:44:39.824Z,13.85
2022-12-17T08:47:25.202Z,13.50
2022-12-17T08:50:10.619Z,13.68
2022-12-17T08:52:56.401Z,13.77
2022-12-17T08:55:42.071Z,14.90
2022-12-17T08:58:27.857Z,14.02
2022-12-17T09:01:16.875Z,14.05
2022-12-17T09:04:02.235Z,13.75
2022-12-17T09:06:47.788Z,14.18
2022-12-17T09:09:33.256Z,14.32
2022-12-17T09:12:19.326Z,14.27
2022-12-17T09:15:04.709Z,15.33
2022-12-17T09:17:50.193Z,13.60
2022-12-17T09:20:35.891Z,15.40
2022-12-17T09:23:21.590Z,14.95
2022-12-17T09:26:14.388Z,15.32
2022-12-17T09:29:00.094Z,14.43
2022-12-17T09:31:45.623Z,14.55
2022-12-17T09:34:31.016Z,15.05
2022-12-17T09:37:16.901Z,16.58
2022-12-17T09:40:02.338Z,14.80
2022-12-17T09:43:05.171Z,15.88
2022-12-17T09:46:00.608Z,14.95
2022-12-17T09:49:20.409Z,14.73
2022-12-17T09:52:05.976Z,15.93
2022-12-17T09:55:00.964Z,14.57
2022-12-17T09:57:54.045Z,15.00
2022-12-17T10:00:43.014Z,16.10
2022-12-17T10:03:41.432Z,15.27
2022-12-17T10:06:30.515Z,15.00
2022-12-17T10:09:18.664Z,15.55
2022-12-17T10:12:04.577Z,14.82
2022-12-17T10:14:50.443Z,16.85
2022-12-17T10:17:42.265Z,15.13
2022-12-17T10:20:52.345Z,15.35
2022-12-17T10:23:49.706Z,14.63
2022-12-17T10:26:39.652Z,15.32
2022-12-17T10:29:30.831Z,15.95
2022-12-17T10:32:40.768Z,14.77
2022-12-17T10:35:52.974Z,16.08
2022-12-17T10:38:42.539Z,15.82
2022-12-17T10:41:44.751Z,16.08
2022-12-17T10:44:53.405Z,15.15
2022-12-17T10:47:51.672Z,14.70
2022-12-17T10:50:38.326Z,14.57
2022-12-17T10:53:36.800Z,14.90
2022-12-17T10:56:23.118Z,14.60
2022-12-17T10:59:12.277Z,15.60
2022-12-17T11:02:01.672Z,15.65
2022-12-17T11:04:50.774Z,15.98
2022-12-17T11:07:45.429Z,15.05
2022-12-17T11:10:51.247Z,16.50
2022-12-17T11:13:58.251Z,16.38
2022-12-17T11:16:55.477Z,16.20
2022-12-17T11:20:07.189Z,16.38
2022-12-17T11:23:15.372Z,15.98
2022-12-17T11:26:22.379Z,16.30
2022-12-17T11:29:08.063Z,16.00
2022-12-17T11:32:05.632Z,16.50
2022-12-17T11:37:51.661Z,16.67
2022-12-17T11:40:43.564Z,15.98
2022-12-17T11:43:35.231Z,16.08
2022-12-17T11:46:30.780Z,16.25
2022-12-17T11:49:50.409Z,17.38
2022-12-17T11:52:44.666Z,16.50
2022-12-17T11:55:52.274Z,16.52
2022-12-17T11:59:08.778Z,16.67
2022-12-17T12:02:08.712Z,16.17
2022-12-17T12:05:41.816Z,16.23
2022-12-17T12:08:42.865Z,16.23
2022-12-17T12:11:40.624Z,16.70
2022-12-17T12:15:08.946Z,17.40
2022-12-17T12:18:23.577Z,17.15
2022-12-17T12:21:49.311Z,16.98
2022-12-17T12:25:07.320Z,17.13
2022-12-17T12:28:07.953Z,16.80
2022-12-17T12:31:08.449Z,17.58
2022-12-17T12:34:20.229Z,16.70
2022-12-17T12:37:27.614Z,17.65
2022-12-17T12:40:20.796Z,17.02
2022-12-17T12:43:20.121Z,17.63
2022-12-17T12:46:17.113Z,17.13
2022-12-17T12:49:14.886Z,17.63
2022-12-17T12:52:01.497Z,17.90
2022-12-17T12:54:51.606Z,19.52
2022-12-17T12:57:53.134Z,18.60
2022-12-17T13:00:50.968Z,18.05
2022-12-17T13:03:47.413Z,18.95
2022-12-17T13:06:36.642Z,19.33
2022-12-17T13:09:20.683Z,18.45
2022-12-17T13:11:48.757Z,17.88
2022-12-17T13:14:33.139Z,18.88
2022-12-17T13:17:21.851Z,18.10
2022-12-17T13:19:57.505Z,18.30
2022-12-17T13:22:24.882Z,17.80
2022-12-17T13:25:09.021Z,18.45
2022-12-17T13:27:35.809Z,18.05
2022-12-17T13:30:17.836Z,34.80
2022-12-17T13:32:50.613Z,20.23
2022-12-17T13:35:20.706Z,18.55
2022-12-17T13:38:07.045Z,18.90
2022-12-17T13:41:08.155Z,17.75
2022-12-17T13:44:02.776Z,17.23
2022-12-17T13:46:46.923Z,18.33
2022-12-17T13:49:25.257Z,17.25
2022-12-17T13:52:18.213Z,17.50
2022-12-17T13:54:45.433Z,18.33
2022-12-17T13:57:26.053Z,17.48
2022-12-17T13:59:55.201Z,19.27
2022-12-17T14:02:29.355Z,19.33
2022-12-17T14:05:04.040Z,18.38
2022-12-17T14:07:38.324Z,17.48
2022-12-17T14:10:13.909Z,19.13
2022-12-17T14:12:41.296Z,20.88
2022-12-17T14:15:24.514Z,17.73
2022-12-17T14:17:53.646Z,17.60
2022-12-17T14:20:27.043Z,17.58
2022-12-17T14:23:04.425Z,17.63
2022-12-17T14:25:40.149Z,17.17
2022-12-17T14:28:22.852Z,17.48
2022-12-17T14:31:25.110Z,16.10
2022-12-17T14:33:38.568Z,15.85
2022-12-17T14:36:26.389Z,16.98
2022-12-17T14:38:59.382Z,16.92
2022-12-17T14:41:46.835Z,18.00
2022-12-17T14:44:28.677Z,17.73
2022-12-17T14:47:08.560Z,17.75
2022-12-17T14:49:37.604Z,18.35
2022-12-17T14:52:14.028Z,18.15
2022-12-17T14:57:22.287Z,17.33
2022-12-17T14:59:50.471Z,18.77
2022-12-17T15:02:26.877Z,18.13
2022-12-17T15:04:57.958Z,17.67
2022-12-17T15:07:30.876Z,19.33
2022-12-17T15:10:01.490Z,19.92
2022-12-17T15:12:34.542Z,20.67
2022-12-17T15:15:01.627Z,21.63
2022-12-17T15:17:28.437Z,22.00
2022-12-17T15:20:01.104Z,19.40
2022-12-17T15:22:28.128Z,18.65
2022-12-17T15:24:55.650Z,18.55
2022-12-17T15:27:22.807Z,19.88
2022-12-17T15:29:52.470Z,20.05
2022-12-17T15:32:21.899Z,20.50
2022-12-17T15:34:49.233Z,19.98
2022-12-17T15:37:21.004Z,18.88
2022-12-17T15:39:51.889Z,18.75
2022-12-17T15:42:37.367Z,18.27
2022-12-17T15:45:04.680Z,18.15
2022-12-17T15:47:34.992Z,19.05
2022-12-17T15:50:02.535Z,18.77
2022-12-17T15:52:29.462Z,19.45
2022-12-17T15:54:56.478Z,19.15
2022-12-17T15:57:24.373Z,19.10
2022-12-17T15:59:54.729Z,20.40
2022-12-17T16:02:21.957Z,21.25
2022-12-17T16:04:49.191Z,19.35
2022-12-17T16:07:16.573Z,20.17
2022-12-17T16:09:45.576Z,20.23
2022-12-17T16:12:16.475Z,20.30
2022-12-17T16:14:43.436Z,19.95
2022-12-17T16:17:10.592Z,21.58
2022-12-17T16:19:37.605Z,20.05
2022-12-17T16:22:10.726Z,19.38
2022-12-17T16:24:37.822Z,20.75
2022-12-17T16:27:05.024Z,21.63
2022-12-17T16:29:32.108Z,20.33
2022-12-17T16:32:00.228Z,22.08
2022-12-17T16:34:48.487Z,20.25
2022-12-17T16:37:15.703Z,21.17
2022-12-17T16:39:43.171Z,20.50
2022-12-17T16:42:14.074Z,20.83
2022-12-17T16:44:41.382Z,20.70
2022-12-17T16:47:08.355Z,20.20
2022-12-17T16:49:35.301Z,21.88
2022-12-17T16:52:03.745Z,20.70
2022-12-17T16:54:32.767Z,20.00
2022-12-17T16:57:01.561Z,20.58
2022-12-17T16:59:29.005Z,20.90
2022-12-17T17:02:06.419Z,19.95
2022-12-17T17:04:35.018Z,19.88
2022-12-17T17:07:02.017Z,19.95
2022-12-17T17:09:31.647Z,20.45
2022-12-17T17:11:59.183Z,21.20
2022-12-17T17:14:26.705Z,19.23
2022-12-17T17:16:53.698Z,19.25
2022-12-17T17:19:20.718Z,20.20
2022-12-17T17:21:57.542Z,19.65
2022-12-17T17:24:25.898Z,20.23
2022-12-17T17:26:56.246Z,21.15
2022-12-17T17:29:23.353Z,20.58
2022-12-17T17:32:09.653Z,23.08
2022-12-17T17:37:10.297Z,21.58
2022-12-17T17:39:37.251Z,20.83
2022-12-17T17:42:04.294Z,20.55
2022-12-17T17:44:31.407Z,21.25
2022-12-17T17:47:03.304Z,21.33
2022-12-17T17:49:30.708Z,22.00
2022-12-17T17:52:09.583Z,21.00
2022-12-17T17:54:39.443Z,22.17
2022-12-17T17:57:06.598Z,22.58
2022-12-17T17:59:34.405Z,22.00
2022-12-17T18:02:03.014Z,20.02
2022-12-17T18:04:32.976Z,20.17
2022-12-17T18:07:24.163Z,21.02
2022-12-17T18:09:47.221Z,20.15
2022-12-17T18:12:36.382Z,20.23
2022-12-17T18:15:19.317Z,19.65
2022-12-17T18:17:51.469Z,18.83
2022-12-17T18:20:18.529Z,19.05
2022-12-17T18:22:46.476Z,19.25
2022-12-17T18:25:14.198Z,16.88
2022-12-17T18:27:41.226Z,18.13
2022-12-17T18:30:08.662Z,16.42
2022-12-17T18:32:35.595Z,16.40
2022-12-17T18:35:02.480Z,18.17
2022-12-17T18:37:29.335Z,17.58
2022-12-17T18:39:56.168Z,17.90
2022-12-17T18:42:52.194Z,16.95
2022-12-17T18:45:19.047Z,16.65
2022-12-17T18:47:46.019Z,17.48
2022-12-17T18:50:13.655Z,16.20
2022-12-17T18:52:40.766Z,17.13
2022-12-17T18:55:10.958Z,16.77
2022-12-17T18:57:37.856Z,16.92
2022-12-17T19:00:05.991Z,16.95
2022-12-17T19:02:33.644Z,18.05
2022-12-17T19:05:00.624Z,16.85
2022-12-17T19:07:27.399Z,17.63
2022-12-17T19:09:54.634Z,17.60
2022-12-17T19:12:21.417Z,17.60
2022-12-17T19:14:48.348Z,17.77
2022-12-17T19:17:15.196Z,17.02
2022-12-17T19:19:42.092Z,17.75
2022-12-17T19:22:09.094Z,18.15
2022-12-17T19:24:35.976Z,16.90
2022-12-17T19:27:03.235Z,18.00
2022-12-17T19:29:30.383Z,17.20
2022-12-17T19:31:57.771Z,17.08
2022-12-17T19:34:24.984Z,17.05
2022-12-17T19:36:52.528Z,18.33
2022-12-17T19:39:20.297Z,18.65
2022-12-17T19:41:51.163Z,18.55
2022-12-17T19:44:20.342Z,16.50
2022-12-17T19:46:47.914Z,17.17
2022-12-17T19:49:18.597Z,16.42
2022-12-17T19:51:45.680Z,16.15
2022-12-17T19:54:14.963Z,16.48
2022-12-17T19:56:44.198Z,17.45
2022-12-17T19:59:12.315Z,17.85
2022-12-17T20:01:45.041Z,16.85
2022-12-17T20:04:13.821Z,17.48
2022-12-17T20:06:40.829Z,17.20
2022-12-17T20:09:08.407Z,16.73
2022-12-17T20:11:36.343Z,16.48
2022-12-17T20:14:28.368Z,16.50
2022-12-17T20:16:59.779Z,16.75
2022-12-17T20:19:32.045Z,17.05
2022-12-17T20:22:04.558Z,15.60
2022-12-17T20:24:32.331Z,16.10
2022-12-17T20:27:00.150Z,17.02
2022-12-17T20:29:27.421Z,16.60
2022-12-17T20:31:55.509Z,16.45
2022-12-17T20:34:23.133Z,17.20
2022-12-17T20:36:51.416Z,16.17
2022-12-17T20:39:23.272Z,16.67
2022-12-17T20:41:53.200Z,16.33
2022-12-17T20:44:20.050Z,16.15
2022-12-17T20:46:47.074Z,17.92
2022-12-17T20:49:14.919Z,17.90
2022-12-17T20:51:42.684Z,17.42
2022-12-17T20:54:10.341Z,16.98
2022-12-17T20:56:39.537Z,16.73
2022-12-17T20:59:08.701Z,16.90
2022-12-17T21:01:36.927Z,15.82
2022-12-17T21:04:06.361Z,17.15
2022-12-17T21:06:38.527Z,16.33
2022-12-17T21:09:05.788Z,17.10
2022-12-17T21:11:34.441Z,16.50
2022-12-17T21:14:08.270Z,15.75
2022-12-17T21:16:36.607Z,17.55
2022-12-17T21:19:05.793Z,18.27
2022-12-17T21:21:35.330Z,15.90
2022-12-17T21:24:02.344Z,17.75
2022-12-17T21:26:34.794Z,16.63
2022-12-17T21:29:03.978Z,17.85
2022-12-17T21:31:38.028Z,17.02
2022-12-17T21:34:06.844Z,17.40
2022-12-17T21:36:34.729Z,18.20
2022-12-17T21:39:02.102Z,17.17
2022-12-17T21:41:40.308Z,17.48
2022-12-17T21:44:13.148Z,17.98
2022-12-17T21:46:41.002Z,17.67
2022-12-17T21:49:07.911Z,17.42
2022-12-17T21:51:35.262Z,18.80
2022-12-17T21:54:08.355Z,17.85
2022-12-17T21:56:36.617Z,17.67
2022-12-17T21:59:04.592Z,18.00
2022-12-17T22:01:34.028Z,18.13
2022-12-17T22:04:04.351Z,16.83
2022-12-17T22:06:39.328Z,16.88
2022-12-17T22:09:32.544Z,17.40
2022-12-17T22:12:23.683Z,17.58
2022-12-17T22:14:52.003Z,16.90
2022-12-17T22:17:22.468Z,17.80
2022-12-17T22:19:49.460Z,18.35
2022-12-17T22:22:16.224Z,17.23
2022-12-17T22:24:43.155Z,16.95
2022-12-17T22:27:10.075Z,17.73
2022-12-17T22:29:55.697Z,18.33
2022-12-17T22:32:41.637Z,17.48
2022-12-17T22:36:10.663Z,17.30
2022-12-17T22:40:46.805Z,15.77
2022-12-17T22:43:47.817Z,16.95
2022-12-17T22:44:41.156Z,15.48
2022-12-17T22:46:16.989Z,15.90
2022-12-17T22:48:44.250Z,16.42
2022-12-17T22:51:12.188Z,16.73
2022-12-17T22:53:41.153Z,16.05
2022-12-17T22:56:16.046Z,17.02
2022-12-17T22:58:56.226Z,15.82
2022-12-17T23:01:23.557Z,16.80
2022-12-17T23:03:54.155Z,15.77
2022-12-17T23:06:21.230Z,15.10
2022-12-17T23:08:48.128Z,15.57
2022-12-17T23:11:17.663Z,14.90
2022-12-17T23:13:45.001Z,15.88
2022-12-17T23:16:13.574Z,15.98
2022-12-17T23:18:41.206Z,14.82
2022-12-17T23:21:21.823Z,15.48
2022-12-17T23:23:48.753Z,16.08
2022-12-17T23:26:17.179Z,15.25
2022-12-17T23:28:45.220Z,16.35
2022-12-17T23:31:18.352Z,16.58
2022-12-17T23:33:45.659Z,16.02
2022-12-17T23:36:14.686Z,16.45
2022-12-17T23:38:42.331Z,15.98
2022-12-17T23:41:10.316Z,15.45
2022-12-17T23:43:38.271Z,15.65
2022-12-17T23:46:06.900Z,16.05
2022-12-17T23:48:39.484Z,16.05
2022-12-17T23:51:10.397Z,16.25
2022-12-17T23:53:38.658Z,15.93
2022-12-17T23:56:06.237Z,15.48
2022-12-17T23:58:34.666Z,15.27
